Time;durP1;ratioP1;P1;durP2;ratioP2;P2;SDS_P1;SDS_P2;PMS_P1;PMS_P2;Temp;Humidity;BMP_temperature;BMP_pressure;BME280_temperature;BME280_humidity;BME280_pressure;Samples;Min_cycle;Max_cycle;Signal;HPM_P1;HPM_P2
2022/10/29 00:01:15;;;;;;;11.95;9.48;;;;;;;10.14;58.07;96077.25;5029053;28;20285;-68
2022/10/29 00:03:40;;;;;;;13.13;9.90;;;;;;;10.17;57.86;96070.91;5024070;28;20339;-69
2022/10/29 00:06:09;;;;;;;12.50;9.43;;;;;;;10.20;58.06;96072.47;5022787;28;20187;-69
2022/10/29 00:08:36;;;;;;;10.73;8.05;;;;;;;10.23;57.49;96066.94;5025933;28;20274;-68
2022/10/29 00:11:21;;;;;;;8.35;7.32;;;;;;;10.04;57.53;96065.78;5018522;28;20190;-69
2022/10/29 00:13:51;;;;;;;9.95;7.40;;;;;;;10.13;57.48;96065.06;5022797;28;20186;-69
2022/10/29 00:16:19;;;;;;;9.67;6.97;;;;;;;10.15;57.04;96063.13;5040871;28;20252;-68
2022/10/29 00:18:45;;;;;;;9.13;7.00;;;;;;;9.98;57.57;96061.03;5024243;28;20300;-69
2022/10/29 00:21:14;;;;;;;8.65;7.47;;;;;;;9.80;58.70;96062.50;5029384;28;20280;-69
2022/10/29 00:23:40;;;;;;;10.82;6.97;;;;;;;9.87;58.52;96059.28;5023503;28;20191;-68
2022/10/29 00:26:06;;;;;;;10.70;7.53;;;;;;;9.82;58.36;96056.16;5026563;28;20190;-68
2022/10/29 00:28:33;;;;;;;10.00;6.97;;;;;;;9.86;58.42;96048.88;5026222;28;20255;-68
2022/10/29 00:31:07;;;;;;;12.15;7.18;;;;;;;10.08;57.98;96050.63;5028305;28;20704;-68
2022/10/29 00:33:32;;;;;;;7.85;6.60;;;;;;;10.04;57.87;96043.94;5027654;28;20236;-69
2022/10/29 00:36:04;;;;;;;10.30;7.07;;;;;;;9.93;58.19;96039.56;5025035;28;20186;-68
2022/10/29 00:38:32;;;;;;;10.45;7.53;;;;;;;9.89;58.22;96035.47;5024944;28;20237;-68
2022/10/29 00:40:58;;;;;;;9.55;6.70;;;;;;;9.74;58.78;96041.97;5023871;28;20202;-69
2022/10/29 00:43:25;;;;;;;8.68;6.45;;;;;;;9.65;59.11;96047.00;5025825;28;20178;-69
2022/10/29 00:46:21;;;;;;;8.65;6.75;;;;;;;9.67;59.06;96049.50;5009828;28;20281;-69
2022/10/29 00:48:49;;;;;;;10.38;6.40;;;;;;;9.65;58.47;96036.50;5029753;28;20190;-68
2022/10/29 00:51:16;;;;;;;9.52;7.20;;;;;;;9.46;59.00;96039.75;5027814;28;20328;-68
2022/10/29 00:54:10;;;;;;;8.32;7.07;;;;;;;9.28;59.94;96039.38;5030226;28;20551;-68
2022/10/29 00:56:53;;;;;;;9.85;7.65;;;;;;;9.34;59.71;96039.84;5029618;28;20745;-67
2022/10/29 00:59:19;;;;;;;10.02;7.30;;;;;;;9.34;60.30;96034.59;5031382;28;20235;-68
2022/10/29 01:01:47;;;;;;;11.88;7.63;;;;;;;9.24;60.24;96027.41;5031457;28;20202;-65
2022/10/29 01:04:13;;;;;;;10.27;7.75;;;;;;;9.36;60.00;96030.91;5029446;28;20189;-65
2022/10/29 01:06:41;;;;;;;10.93;7.43;;;;;;;9.40;59.73;96027.06;5027389;28;20194;-65
2022/10/29 01:09:06;;;;;;;10.57;7.95;;;;;;;9.52;59.11;96038.41;5031594;28;20214;-65
2022/10/29 01:11:50;;;;;;;13.25;7.80;;;;;;;9.59;58.77;96033.50;5031657;28;20214;-66
2022/10/29 01:14:19;;;;;;;8.63;6.97;;;;;;;9.33;59.27;96027.66;5029089;28;20284;-66
2022/10/29 01:17:17;;;;;;;9.70;7.85;;;;;;;9.17;59.92;96012.31;5032068;28;20186;-66
2022/10/29 01:20:25;;;;;;;11.02;7.50;;;;;;;9.41;59.42;96023.50;5032668;28;20631;-66
2022/10/29 01:23:09;;;;;;;8.43;7.05;;;;;;;9.27;59.54;96018.47;4952261;29;20209;-66
2022/10/29 01:25:49;;;;;;;8.82;7.28;;;;;;;9.31;59.75;96014.69;4936086;29;20200;-66
2022/10/29 01:28:14;;;;;;;10.07;7.72;;;;;;;9.31;60.08;96008.59;4935784;29;20201;-66
2022/10/29 01:31:18;;;;;;;10.23;7.28;;;;;;;9.34;59.82;96008.34;4950762;28;20192;-67
2022/10/29 01:34:01;;;;;;;9.65;7.32;;;;;;;9.48;59.35;96008.09;4936895;29;20285;-67
2022/10/29 01:36:30;;;;;;;9.05;7.57;;;;;;;9.46;58.85;96010.00;4938084;29;20192;-67
2022/10/29 01:39:14;;;;;;;13.95;7.18;;;;;;;9.40;59.16;96005.25;4949766;29;20257;-65
2022/10/29 01:41:55;;;;;;;10.75;7.22;;;;;;;9.33;59.39;96012.78;4936391;29;20288;-66
2022/10/29 01:44:36;;;;;;;9.30;7.60;;;;;;;9.21;59.67;96008.47;4951002;29;20242;-66
2022/10/29 01:47:13;;;;;;;11.60;7.40;;;;;;;9.04;60.27;96002.72;4948332;29;20212;-66
2022/10/29 01:49:41;;;;;;;10.18;6.93;;;;;;;9.14;59.96;96000.25;4935398;29;20817;-66
2022/10/29 01:52:11;;;;;;;11.13;6.90;;;;;;;9.13;59.86;96003.81;4951343;29;20216;-66
2022/10/29 01:54:46;;;;;;;10.43;7.25;;;;;;;9.03;60.47;96000.22;4936057;29;20208;-66
2022/10/29 01:57:41;;;;;;;10.02;7.18;;;;;;;8.97;60.82;96006.78;4947244;29;20352;-66
2022/10/29 02:00:18;;;;;;;11.80;7.38;;;;;;;8.92;60.95;95997.59;4931882;28;20238;-67
2022/10/29 02:02:55;;;;;;;11.07;8.18;;;;;;;9.05;60.29;96000.94;4971918;28;20195;-66
2022/10/29 02:05:36;;;;;;;9.32;7.63;;;;;;;9.04;60.54;96010.59;4971306;28;20200;-67
2022/10/29 02:08:24;;;;;;;10.45;6.85;;;;;;;8.85;61.14;96002.47;4947286;28;20279;-66
2022/10/29 02:10:58;;;;;;;9.98;7.03;;;;;;;8.90;61.03;96004.72;4961828;28;20198;-66
2022/10/29 02:13:33;;;;;;;8.00;6.45;;;;;;;8.92;60.69;96002.84;4972970;28;20203;-66
2022/10/29 02:16:04;;;;;;;7.55;6.60;;;;;;;8.75;61.58;95989.22;4954653;28;20188;-66
2022/10/29 02:18:29;;;;;;;12.07;7.68;;;;;;;8.82;61.03;95985.19;4955686;28;20208;-66
2022/10/29 02:20:55;;;;;;;10.70;7.70;;;;;;;8.83;60.61;95986.84;4960092;28;20214;-66
2022/10/29 02:23:20;;;;;;;11.38;7.85;;;;;;;8.90;60.78;95989.84;4955267;28;20230;-66
2022/10/29 02:25:46;;;;;;;9.82;7.03;;;;;;;8.91;60.62;95985.44;4973620;28;20224;-66
2022/10/29 02:28:11;;;;;;;9.32;7.00;;;;;;;8.91;60.82;95993.31;4954900;28;20180;-66
2022/10/29 02:30:37;;;;;;;8.90;7.32;;;;;;;8.84;61.00;95996.38;4971586;28;20206;-66
2022/10/29 02:33:02;;;;;;;10.02;7.43;;;;;;;8.80;60.79;96000.19;4970807;28;20239;-66
2022/10/29 02:35:28;;;;;;;8.30;6.80;;;;;;;8.77;61.21;95999.63;4955627;28;20908;-67
2022/10/29 02:37:53;;;;;;;9.35;6.70;;;;;;;8.80;61.02;95992.34;5029201;28;20310;-67
2022/10/29 02:40:19;;;;;;;10.37;7.53;;;;;;;8.66;61.60;95986.44;5027577;28;20672;-66
2022/10/29 02:42:44;;;;;;;10.77;7.30;;;;;;;8.59;61.79;95986.09;5030475;28;20345;-70
2022/10/29 02:45:09;;;;;;;11.13;7.73;;;;;;;8.64;61.32;95981.34;5024473;28;20277;-69
2022/10/29 02:47:35;;;;;;;14.43;7.17;;;;;;;8.68;61.61;95974.91;5028302;28;20216;-68
2022/10/29 02:50:00;;;;;;;7.63;6.87;;;;;;;8.68;61.41;95979.31;5027318;28;20194;-66
2022/10/29 02:52:26;;;;;;;9.52;7.50;;;;;;;8.63;61.46;95986.69;5030074;28;20201;-67
2022/10/29 02:54:51;;;;;;;9.70;6.83;;;;;;;8.54;62.00;95977.75;5027479;28;20345;-66
2022/10/29 02:57:17;;;;;;;10.30;7.30;;;;;;;8.83;60.88;95986.84;5026024;28;20245;-67
2022/10/29 02:59:42;;;;;;;9.33;7.40;;;;;;;8.62;60.98;95975.38;5029673;28;20206;-67
2022/10/29 03:02:07;;;;;;;9.07;7.33;;;;;;;8.77;60.60;95982.09;5026937;28;20191;-67
2022/10/29 03:04:33;;;;;;;10.17;7.73;;;;;;;8.55;61.21;95982.03;5027563;28;20206;-67
2022/10/29 03:06:59;;;;;;;9.23;7.40;;;;;;;8.57;61.41;95974.88;5026593;28;20264;-66
2022/10/29 03:09:24;;;;;;;7.55;6.63;;;;;;;8.63;61.47;95986.69;5029680;28;20193;-67
2022/10/29 03:11:50;;;;;;;8.73;6.60;;;;;;;8.63;61.33;95987.53;5027849;28;20194;-68
2022/10/29 03:14:15;;;;;;;10.75;7.40;;;;;;;8.54;61.26;95980.38;5027103;28;20202;-66
2022/10/29 03:16:41;;;;;;;8.30;7.03;;;;;;;8.52;61.45;95977.00;5028927;28;20183;-69
2022/10/29 03:19:06;;;;;;;10.73;7.40;;;;;;;8.44;61.82;95982.00;5023883;28;20216;-68
2022/10/29 03:21:31;;;;;;;7.17;6.30;;;;;;;8.46;61.79;95980.94;5027704;28;20193;-68
2022/10/29 03:23:57;;;;;;;11.27;7.23;;;;;;;8.36;62.19;95977.28;5028021;28;20190;-69
2022/10/29 03:26:22;;;;;;;8.57;7.25;;;;;;;8.16;62.72;95978.78;5028936;28;20193;-68
2022/10/29 03:28:48;;;;;;;10.20;7.80;;;;;;;8.02;63.44;95976.34;5027932;28;20192;-68
2022/10/29 03:31:13;;;;;;;10.53;7.00;;;;;;;8.14;62.85;95972.81;5026810;28;20637;-68
2022/10/29 03:33:38;;;;;;;11.00;7.77;;;;;;;8.10;62.96;95977.47;5026724;28;20538;-68
2022/10/29 03:36:07;;;;;;;12.63;8.10;;;;;;;8.13;62.61;95979.03;5027360;28;20189;-67
2022/10/29 03:38:33;;;;;;;7.60;6.80;;;;;;;8.21;62.21;95971.44;5023794;28;20268;-68
2022/10/29 03:40:59;;;;;;;8.85;6.93;;;;;;;8.11;62.32;95970.44;5025038;28;20214;-68
2022/10/29 03:43:25;;;;;;;9.98;7.90;;;;;;;8.17;62.63;95972.59;5026035;28;20213;-68
2022/10/29 03:45:55;;;;;;;11.43;7.20;;;;;;;7.90;63.22;95965.81;5021326;28;20191;-68
2022/10/29 03:48:22;;;;;;;8.40;6.73;;;;;;;8.06;62.41;95962.91;5021480;28;20190;-68
2022/10/29 03:50:55;;;;;;;10.65;7.60;;;;;;;8.04;62.69;95963.97;5025802;28;20195;-68
2022/10/29 03:53:21;;;;;;;11.20;7.57;;;;;;;8.11;62.51;95967.81;5024822;28;20187;-68
2022/10/29 03:55:46;;;;;;;10.80;6.80;;;;;;;8.04;62.73;95970.03;5026536;28;20547;-67
2022/10/29 03:58:11;;;;;;;8.43;6.57;;;;;;;8.16;62.43;95963.06;5036854;28;20209;-68
2022/10/29 04:00:37;;;;;;;13.30;7.67;;;;;;;7.98;62.64;95972.28;5028995;28;20714;-68
2022/10/29 04:03:02;;;;;;;11.40;7.70;;;;;;;7.84;63.34;95971.50;5029347;28;20182;-67
2022/10/29 04:05:28;;;;;;;11.30;7.70;;;;;;;7.88;63.14;95969.50;5025226;28;20197;-68
2022/10/29 04:07:53;;;;;;;14.53;8.10;;;;;;;7.76;63.16;95968.59;5025954;28;20197;-68
2022/10/29 04:10:19;;;;;;;9.90;7.13;;;;;;;7.83;63.48;95977.69;5025242;28;20198;-67
2022/10/29 04:12:45;;;;;;;7.65;6.80;;;;;;;7.88;63.30;95974.72;5024073;28;20205;-67
2022/10/29 04:15:11;;;;;;;11.93;8.10;;;;;;;7.82;63.04;95981.25;5027516;28;20304;-67
2022/10/29 04:17:36;;;;;;;10.27;7.38;;;;;;;7.88;63.33;95980.78;5027569;28;20278;-67
2022/10/29 04:20:02;;;;;;;17.05;8.80;;;;;;;7.89;63.13;95977.25;5026489;28;20210;-68
2022/10/29 04:22:27;;;;;;;12.00;8.10;;;;;;;7.88;63.03;95983.41;5026773;28;20206;-68
2022/10/29 04:24:53;;;;;;;13.40;9.50;;;;;;;7.74;63.47;95987.03;5029754;28;20194;-67
2022/10/29 04:27:18;;;;;;;11.53;8.83;;;;;;;7.82;63.12;95996.13;5029663;28;20235;-67
2022/10/29 04:29:44;;;;;;;14.32;8.95;;;;;;;7.86;62.99;95992.34;5031506;28;20255;-68
2022/10/29 04:32:09;;;;;;;12.17;9.17;;;;;;;7.88;62.79;95996.50;5029240;28;20197;-68
2022/10/29 04:34:34;;;;;;;16.30;9.30;;;;;;;7.79;63.24;95991.13;5028992;28;20190;-68
2022/10/29 04:37:00;;;;;;;14.15;8.85;;;;;;;7.77;63.41;95991.22;5033049;28;20649;-68
2022/10/29 04:39:25;;;;;;;15.23;9.60;;;;;;;7.70;63.96;95997.84;5029263;28;20230;-67
2022/10/29 04:41:51;;;;;;;11.45;9.15;;;;;;;7.72;63.83;95993.31;5032801;28;20193;-68
2022/10/29 04:44:16;;;;;;;9.93;8.40;;;;;;;7.76;63.96;95993.97;5032434;28;20340;-68
2022/10/29 04:46:42;;;;;;;13.83;8.60;;;;;;;7.71;64.20;95987.25;5030823;28;20194;-68
2022/10/29 04:49:07;;;;;;;12.57;8.20;;;;;;;7.88;63.21;95999.13;5032629;28;20266;-67
2022/10/29 04:51:32;;;;;;;14.10;8.37;;;;;;;7.80;63.40;96000.63;5029441;28;20251;-68
2022/10/29 04:53:58;;;;;;;11.05;8.80;;;;;;;7.81;63.19;95995.28;5028487;28;20190;-68
2022/10/29 04:56:23;;;;;;;11.45;8.98;;;;;;;7.84;63.47;95997.69;5030664;28;20195;-68
2022/10/29 04:58:52;;;;;;;11.57;8.65;;;;;;;7.66;64.10;95992.00;5032266;28;20225;-68
2022/10/29 05:01:17;;;;;;;12.65;8.70;;;;;;;7.81;63.34;95990.06;5032517;28;20186;-68
2022/10/29 05:03:43;;;;;;;13.17;9.30;;;;;;;7.69;63.83;95996.16;5029315;28;20182;-67
2022/10/29 05:06:08;;;;;;;12.80;9.23;;;;;;;7.67;63.67;95985.81;5028638;28;20201;-67
2022/10/29 05:08:33;;;;;;;15.30;9.50;;;;;;;7.73;63.43;95985.38;5031485;28;20189;-67
2022/10/29 05:11:04;;;;;;;18.20;10.87;;;;;;;7.78;63.32;95992.91;5030332;28;20194;-68
2022/10/29 05:13:30;;;;;;;19.85;11.32;;;;;;;7.74;63.82;95992.28;5026441;28;20649;-64
2022/10/29 05:15:56;;;;;;;12.48;10.60;;;;;;;7.56;64.53;95998.00;5028311;28;20578;-68
2022/10/29 05:18:21;;;;;;;25.02;9.95;;;;;;;7.57;64.32;96007.53;5032073;28;20313;-67
2022/10/29 05:20:47;;;;;;;19.97;9.10;;;;;;;7.79;63.71;96002.41;5030750;28;20225;-68
2022/10/29 05:23:12;;;;;;;13.27;8.80;;;;;;;7.82;63.60;95994.34;5031721;28;20498;-68
2022/10/29 05:25:39;;;;;;;12.27;9.13;;;;;;;7.81;63.66;96000.53;5029552;28;20192;-68
2022/10/29 05:28:13;;;;;;;13.45;8.65;;;;;;;7.90;63.77;95999.84;5030836;28;20636;-68
2022/10/29 05:30:39;;;;;;;14.60;9.07;;;;;;;7.77;64.17;95999.06;5030577;28;20213;-66
2022/10/29 05:33:09;;;;;;;13.37;8.50;;;;;;;7.52;65.05;95997.38;5028706;28;20194;-67
2022/10/29 05:35:35;;;;;;;15.85;11.07;;;;;;;7.69;64.42;96002.22;5026159;28;20340;-66
2022/10/29 05:38:01;;;;;;;10.80;9.63;;;;;;;7.83;64.17;96003.03;5031480;28;20213;-66
2022/10/29 05:40:26;;;;;;;13.90;9.45;;;;;;;7.90;63.96;96009.50;5029747;28;20239;-66
2022/10/29 05:42:52;;;;;;;15.40;9.53;;;;;;;8.06;63.53;96007.44;5026657;28;20190;-66
2022/10/29 05:45:17;;;;;;;15.47;10.07;;;;;;;8.06;63.37;96017.09;5022494;28;20202;-66
2022/10/29 05:47:43;;;;;;;11.73;9.10;;;;;;;8.14;63.10;96017.34;5027119;28;20274;-67
2022/10/29 05:50:09;;;;;;;14.65;8.48;;;;;;;8.26;62.53;96011.22;5027368;28;20182;-66
2022/10/29 05:52:34;;;;;;;12.10;7.07;;;;;;;8.34;62.04;96016.75;5025937;28;20210;-66
2022/10/29 05:55:00;;;;;;;9.50;6.93;;;;;;;8.26;62.25;96010.38;5028580;28;20284;-66
2022/10/29 05:57:27;;;;;;;7.13;5.40;;;;;;;8.34;61.98;96016.75;5029033;28;20587;-65
2022/10/29 05:59:52;;;;;;;12.70;6.50;;;;;;;8.49;61.40;96020.03;5023767;28;20211;-66
2022/10/29 06:02:18;;;;;;;12.88;6.00;;;;;;;8.64;60.97;96017.22;5026957;28;20741;-65
2022/10/29 06:04:43;;;;;;;8.52;6.15;;;;;;;8.61;60.92;96026.16;5027652;28;20236;-66
2022/10/29 06:07:09;;;;;;;7.03;5.80;;;;;;;8.73;60.49;96014.72;5026745;28;20186;-65
2022/10/29 06:09:34;;;;;;;9.07;6.30;;;;;;;8.65;61.19;96027.56;5029369;28;20177;-65
2022/10/29 06:12:03;;;;;;;9.70;6.40;;;;;;;8.62;61.70;96027.81;5027287;28;20289;-66
2022/10/29 06:14:28;;;;;;;8.57;6.32;;;;;;;8.67;61.48;96035.34;5040378;28;20604;-63
2022/10/29 06:16:54;;;;;;;8.73;6.72;;;;;;;8.65;61.32;96027.56;5023529;28;20285;-62
2022/10/29 06:19:19;;;;;;;8.03;7.17;;;;;;;8.72;61.30;96028.78;5030193;28;20216;-62
2022/10/29 06:21:45;;;;;;;13.45;7.72;;;;;;;8.74;61.30;96016.41;5028363;28;20214;-63
2022/10/29 06:24:12;;;;;;;8.40;7.03;;;;;;;8.95;60.76;96024.41;5028618;28;20273;-64
2022/10/29 06:26:38;;;;;;;10.63;7.30;;;;;;;9.00;60.43;96026.69;5026711;28;20186;-66
2022/10/29 06:29:03;;;;;;;10.03;6.83;;;;;;;9.08;60.42;96028.72;5022484;28;20224;-66
2022/10/29 06:31:29;;;;;;;9.90;7.70;;;;;;;9.35;59.90;96031.00;5027990;28;20277;-65
2022/10/29 06:33:54;;;;;;;12.90;8.73;;;;;;;9.27;60.41;96010.59;5027530;28;20235;-64
2022/10/29 06:36:20;;;;;;;14.45;9.75;;;;;;;9.38;60.31;96022.88;5029362;28;20189;-64
2022/10/29 06:38:45;;;;;;;11.30;9.40;;;;;;;9.43;59.95;96024.19;5026995;28;20250;-63
2022/10/29 06:41:11;;;;;;;10.77;8.80;;;;;;;9.24;60.85;96014.31;5020323;28;20193;-63
2022/10/29 06:43:37;;;;;;;13.50;9.32;;;;;;;9.31;60.31;96012.06;5023329;28;20182;-62
2022/10/29 06:46:02;;;;;;;14.68;9.98;;;;;;;9.44;60.29;96014.56;5027702;28;21001;-63
2022/10/29 06:48:28;;;;;;;11.90;9.73;;;;;;;9.52;60.73;96019.22;5026359;28;20182;-62
2022/10/29 06:50:53;;;;;;;13.98;10.90;;;;;;;9.56;59.89;96018.00;5028576;28;20186;-64
2022/10/29 06:53:19;;;;;;;14.57;10.02;;;;;;;9.54;59.46;96023.34;5028659;28;20191;-63
2022/10/29 06:55:45;;;;;;;12.70;9.45;;;;;;;9.67;58.66;96023.22;5026856;28;20681;-64
2022/10/29 06:58:15;;;;;;;14.68;9.77;;;;;;;9.70;58.99;96025.59;5022499;28;20242;-62
2022/10/29 07:00:41;;;;;;;14.38;10.52;;;;;;;9.79;59.41;96021.44;5028082;28;20193;-61
2022/10/29 07:03:11;;;;;;;18.55;11.55;;;;;;;9.86;58.52;96026.09;5024864;28;20221;-61
2022/10/29 07:05:36;;;;;;;14.98;9.90;;;;;;;10.01;58.27;96031.06;5027291;28;20237;-62
2022/10/29 07:08:02;;;;;;;16.80;10.85;;;;;;;10.16;57.53;96029.81;5025847;28;20190;-61
2022/10/29 07:10:30;;;;;;;11.38;10.18;;;;;;;10.08;57.66;96027.81;5023932;28;20233;-61
2022/10/29 07:12:55;;;;;;;14.07;10.40;;;;;;;10.13;58.23;96032.69;5027591;28;20244;-61
2022/10/29 07:15:21;;;;;;;11.48;9.10;;;;;;;10.16;57.56;96027.19;5024083;28;20658;-61
2022/10/29 07:18:02;;;;;;;12.73;9.63;;;;;;;10.12;57.44;96033.66;5028748;28;20209;-62
2022/10/29 07:20:30;;;;;;;11.75;9.32;;;;;;;10.29;57.13;96040.19;5022617;28;20186;-61
2022/10/29 07:22:56;;;;;;;10.30;9.13;;;;;;;10.26;57.41;96035.16;5020554;28;20181;-62
2022/10/29 07:25:22;;;;;;;12.20;9.05;;;;;;;10.35;57.03;96037.09;5025551;28;20186;-62
2022/10/29 07:27:47;;;;;;;9.88;8.25;;;;;;;10.50;56.60;96040.22;5023405;28;20331;-62
2022/10/29 07:30:13;;;;;;;11.43;9.10;;;;;;;10.64;56.62;96044.34;5025214;28;20277;-62
2022/10/29 07:32:38;;;;;;;8.80;7.93;;;;;;;10.54;56.33;96052.19;5007548;28;20298;-62
2022/10/29 07:35:04;;;;;;;12.90;9.25;;;;;;;10.54;56.26;96047.75;5024196;28;20273;-62
2022/10/29 07:37:29;;;;;;;13.30;9.15;;;;;;;10.70;56.59;96042.06;5028959;28;20190;-62
2022/10/29 07:39:55;;;;;;;11.82;9.60;;;;;;;10.42;57.23;96045.28;5027741;28;20321;-62
2022/10/29 07:42:20;;;;;;;11.90;9.10;;;;;;;10.57;56.98;96036.97;5027390;28;20189;-62
2022/10/29 07:44:46;;;;;;;10.68;8.73;;;;;;;10.70;56.62;96033.34;5027424;28;20555;-64
2022/10/29 07:47:11;;;;;;;10.68;9.38;;;;;;;10.80;56.73;96023.72;5027582;28;20202;-63
2022/10/29 07:49:37;;;;;;;12.55;10.10;;;;;;;10.89;56.74;96030.84;5024738;28;20187;-62
2022/10/29 07:52:02;;;;;;;12.82;11.10;;;;;;;11.07;55.37;96028.47;5026706;28;20251;-63
2022/10/29 07:54:28;;;;;;;12.45;10.95;;;;;;;11.18;55.31;96028.38;5023848;28;20182;-62
2022/10/29 07:56:53;;;;;;;13.25;10.45;;;;;;;11.15;55.42;96030.44;5029142;28;20204;-62
2022/10/29 07:59:19;;;;;;;10.80;9.70;;;;;;;11.18;55.54;96017.84;5031496;28;20571;-62
2022/10/29 08:01:45;;;;;;;14.63;10.43;;;;;;;11.29;55.38;96024.81;5030634;28;20598;-63
2022/10/29 08:04:12;;;;;;;11.18;10.07;;;;;;;11.40;54.85;96023.91;5026652;28;20205;-61
2022/10/29 08:06:37;;;;;;;12.40;10.15;;;;;;;11.36;54.70;96025.97;5032658;28;20213;-61
2022/10/29 08:09:03;;;;;;;12.80;11.38;;;;;;;11.46;54.50;96023.38;5028093;28;20664;-62
2022/10/29 08:11:33;;;;;;;13.60;11.77;;;;;;;11.52;55.00;96022.00;5030670;28;20564;-61
2022/10/29 08:13:58;;;;;;;13.20;11.80;;;;;;;11.63;54.21;96014.84;5027156;28;20193;-62
2022/10/29 08:16:24;;;;;;;14.90;12.60;;;;;;;11.61;55.05;96010.69;5029093;28;20190;-61
2022/10/29 08:18:50;;;;;;;14.50;11.80;;;;;;;11.57;54.56;96015.34;5032468;28;20221;-61
2022/10/29 08:21:16;;;;;;;14.40;12.90;;;;;;;11.68;54.31;95999.47;5032330;28;20193;-62
2022/10/29 08:23:42;;;;;;;14.90;12.38;;;;;;;11.86;54.27;96006.75;5031635;28;20182;-62
2022/10/29 08:26:07;;;;;;;16.65;12.85;;;;;;;11.93;54.73;96005.25;5027354;28;20493;-63
2022/10/29 08:28:33;;;;;;;17.67;12.68;;;;;;;12.03;54.79;95999.97;5032090;28;20269;-62
2022/10/29 08:30:58;;;;;;;14.32;11.82;;;;;;;12.09;54.42;96007.34;5030084;28;20186;-63
2022/10/29 08:33:24;;;;;;;15.73;12.35;;;;;;;12.19;52.71;96005.56;5032730;28;20190;-63
2022/10/29 08:35:49;;;;;;;14.77;12.35;;;;;;;12.30;52.18;96004.59;5030404;28;20190;-63
2022/10/29 08:38:15;;;;;;;15.93;11.95;;;;;;;12.39;53.05;96001.13;5027013;28;20744;-63
2022/10/29 08:40:58;;;;;;;14.85;12.43;;;;;;;12.37;54.67;96003.06;5026820;28;20771;-64
2022/10/29 08:43:45;;;;;;;14.52;12.35;;;;;;;12.53;53.17;95992.78;5036584;28;20202;-63
2022/10/29 08:46:23;;;;;;;17.17;12.13;;;;;;;12.68;52.12;95987.09;5046312;28;20193;-63
2022/10/29 08:48:55;;;;;;;14.18;12.57;;;;;;;12.79;52.29;95981.66;5029058;28;20179;-63
2022/10/29 08:51:43;;;;;;;17.20;14.02;;;;;;;13.10;51.29;95978.81;5013603;28;20801;-65
2022/10/29 08:54:14;;;;;;;16.20;12.38;;;;;;;13.18;51.25;95976.28;5024829;28;20198;-64
2022/10/29 08:57:05;;;;;;;17.98;12.63;;;;;;;13.26;50.08;95981.72;5029152;28;20179;-63
2022/10/29 08:59:39;;;;;;;15.70;12.95;;;;;;;13.38;50.66;95977.06;5031115;28;20194;-62
2022/10/29 09:02:12;;;;;;;16.33;13.05;;;;;;;13.36;52.56;95973.72;5031122;28;20190;-62
2022/10/29 09:04:38;;;;;;;13.93;12.27;;;;;;;13.61;49.77;95978.34;5024622;28;20197;-62
2022/10/29 09:07:25;;;;;;;15.25;11.77;;;;;;;13.78;50.39;95979.38;5029695;28;20202;-62
2022/10/29 09:10:12;;;;;;;16.23;11.38;;;;;;;13.86;49.78;95979.44;5028595;28;20190;-62
2022/10/29 09:13:22;;;;;;;13.00;11.68;;;;;;;14.07;49.00;95973.91;5026399;28;20213;-63
2022/10/29 09:16:00;;;;;;;15.60;11.95;;;;;;;14.09;48.28;95977.22;4967969;28;20196;-62
2022/10/29 09:18:46;;;;;;;21.25;12.07;;;;;;;14.19;48.23;95976.31;4950168;28;20215;-62
2022/10/29 09:21:15;;;;;;;17.90;11.77;;;;;;;14.30;49.06;95965.50;4967741;28;20309;-63
2022/10/29 09:23:46;;;;;;;17.73;10.75;;;;;;;14.40;48.37;95960.97;4952528;28;20208;-62
2022/10/29 09:26:32;;;;;;;14.38;11.48;;;;;;;14.53;47.38;95965.91;4966257;28;20189;-62
2022/10/29 09:29:26;;;;;;;16.20;11.20;;;;;;;14.61;48.06;95965.97;4965645;28;20303;-62
2022/10/29 09:32:07;;;;;;;13.45;10.60;;;;;;;14.69;47.04;95962.56;4946946;28;20193;-62
2022/10/29 09:34:46;;;;;;;13.73;11.07;;;;;;;14.80;47.15;95956.19;4965382;28;20195;-63
2022/10/29 09:37:15;;;;;;;14.88;10.88;;;;;;;14.93;46.25;95944.19;4946162;28;20200;-63
2022/10/29 09:39:42;;;;;;;12.88;8.63;;;;;;;14.99;45.86;95940.94;4948107;28;20233;-64
2022/10/29 09:42:34;;;;;;;12.20;8.88;;;;;;;15.25;45.96;95947.19;4950507;28;20283;-63
2022/10/29 09:45:08;;;;;;;9.75;7.95;;;;;;;15.36;45.66;95939.78;4897929;29;20356;-64
2022/10/29 09:47:39;;;;;;;11.75;7.72;;;;;;;15.51;45.44;95936.56;4898564;29;20210;-64
2022/10/29 09:50:21;;;;;;;11.38;7.68;;;;;;;15.72;45.14;95936.19;4929389;29;20559;-63
2022/10/29 09:52:48;;;;;;;8.43;7.20;;;;;;;15.83;44.66;95933.22;4951653;28;20291;-63
2022/10/29 09:55:26;;;;;;;8.95;7.32;;;;;;;15.96;44.15;95927.41;4936036;29;20200;-63
2022/10/29 09:57:55;;;;;;;9.52;6.53;;;;;;;16.11;43.68;95923.16;4936010;29;20188;-63
2022/10/29 10:00:29;;;;;;;8.60;7.28;;;;;;;16.07;43.95;95914.69;4935606;29;20275;-63
2022/10/29 10:03:09;;;;;;;8.93;6.70;;;;;;;16.07;43.40;95922.66;4934904;29;20272;-63
2022/10/29 10:05:54;;;;;;;8.18;7.07;;;;;;;16.04;43.70;95920.34;4935780;29;20220;-63
2022/10/29 10:08:19;;;;;;;8.35;6.57;;;;;;;16.15;42.89;95902.44;4935551;29;20192;-63
2022/10/29 10:10:52;;;;;;;12.38;7.53;;;;;;;16.34;43.19;95899.47;4932615;29;20207;-63
2022/10/29 10:13:19;;;;;;;7.47;6.55;;;;;;;16.50;42.60;95898.63;4935605;29;20212;-62
2022/10/29 10:16:05;;;;;;;10.07;6.65;;;;;;;16.63;43.08;95892.81;4934556;29;20284;-62
2022/10/29 10:18:30;;;;;;;6.82;6.10;;;;;;;16.83;42.67;95890.66;4934815;29;20208;-62
2022/10/29 10:21:05;;;;;;;10.00;5.97;;;;;;;16.84;41.96;95887.84;4938861;28;20200;-63
2022/10/29 10:23:42;;;;;;;8.90;6.43;;;;;;;17.01;42.14;95880.66;5028835;28;20692;-62
2022/10/29 10:26:30;;;;;;;10.45;7.55;;;;;;;17.18;41.13;95878.75;5027284;28;20189;-62
2022/10/29 10:29:10;;;;;;;8.60;7.30;;;;;;;17.31;41.06;95871.06;4949801;28;20209;-63
2022/10/29 10:31:36;;;;;;;10.90;7.50;;;;;;;17.39;40.76;95870.19;4937980;28;20192;-63
2022/10/29 10:34:12;;;;;;;9.50;7.25;;;;;;;17.59;40.81;95858.16;4931380;28;20212;-62
2022/10/29 10:36:41;;;;;;;8.60;6.68;;;;;;;17.73;40.65;95859.22;4949766;28;20196;-62
2022/10/29 10:39:23;;;;;;;9.93;6.43;;;;;;;17.89;39.90;95855.66;4933532;29;20261;-63
2022/10/29 10:41:50;;;;;;;7.80;5.88;;;;;;;17.89;38.84;95855.66;4941861;28;20263;-62
2022/10/29 10:44:17;;;;;;;5.70;4.95;;;;;;;17.85;39.20;95847.22;4938006;28;20205;-62
2022/10/29 10:46:43;;;;;;;8.70;5.15;;;;;;;17.78;39.51;95842.75;4941867;28;20247;-62
2022/10/29 10:49:14;;;;;;;5.57;4.80;;;;;;;18.05;38.83;95839.59;4934577;28;20188;-63
2022/10/29 10:51:47;;;;;;;6.97;5.00;;;;;;;18.21;39.21;95835.97;4945624;28;20644;-62
2022/10/29 10:54:37;;;;;;;5.18;4.53;;;;;;;18.51;38.80;95830.72;4948957;28;20201;-62
2022/10/29 10:57:11;;;;;;;6.82;4.88;;;;;;;18.51;37.94;95826.22;4937350;28;20211;-63
2022/10/29 11:00:06;;;;;;;11.13;5.93;;;;;;;18.82;38.25;95817.28;4937189;29;20252;-63
2022/10/29 11:03:00;;;;;;;7.05;5.00;;;;;;;18.99;37.99;95819.75;4953047;28;20198;-63
2022/10/29 11:05:36;;;;;;;8.82;4.70;;;;;;;19.12;36.96;95811.94;4956305;28;20209;-63
2022/10/29 11:08:31;;;;;;;6.30;4.70;;;;;;;19.17;38.05;95810.38;5024532;28;20185;-67
2022/10/29 11:11:09;;;;;;;8.38;4.40;;;;;;;19.26;36.93;95804.94;5026094;28;20186;-67
2022/10/29 11:13:40;;;;;;;8.05;4.63;;;;;;;19.43;37.55;95806.34;5025352;28;20217;-67
2022/10/29 11:16:21;;;;;;;4.43;4.00;;;;;;;19.57;36.38;95802.03;5026420;28;20283;-67
2022/10/29 11:19:13;;;;;;;7.20;4.13;;;;;;;19.77;35.83;95799.59;5036445;28;20700;-67
2022/10/29 11:22:00;;;;;;;7.03;4.22;;;;;;;19.89;35.01;95791.88;5026283;28;20187;-66
2022/10/29 11:24:37;;;;;;;5.82;4.00;;;;;;;20.08;35.84;95791.25;5021789;28;20651;-68
2022/10/29 11:27:25;;;;;;;5.38;3.70;;;;;;;19.89;34.64;95781.22;5026394;28;20193;-67
2022/10/29 11:30:09;;;;;;;3.97;3.58;;;;;;;19.92;34.95;95773.66;5022355;28;20198;-67
2022/10/29 11:33:02;;;;;;;5.07;2.70;;;;;;;20.09;34.98;95768.88;5020821;28;20676;-68
2022/10/29 11:35:37;;;;;;;3.75;3.30;;;;;;;20.33;34.04;95769.47;5018912;28;20515;-65
2022/10/29 11:38:26;;;;;;;5.13;3.08;;;;;;;21.21;32.87;95773.31;5024731;28;20178;-66
2022/10/29 11:40:57;;;;;;;3.10;2.80;;;;;;;30.33;19.94;95759.94;5028578;28;20229;-65
2022/10/29 11:43:23;;;;;;;2.58;2.30;;;;;;;37.83;12.19;95762.34;5028693;28;20252;-66
2022/10/29 11:46:02;;;;;;;5.28;2.65;;;;;;;39.86;9.69;95760.28;5026532;28;20191;-65
2022/10/29 11:48:58;;;;;;;2.47;2.15;;;;;;;42.59;8.02;95749.66;5026669;28;20626;-65